Flugplatz Kiel-Holtenau

Bericht für EDHK

vom 26.11. um 11:50 UTC

Wind 6 kt aus 230°

Sichtweite 4400 m

feuchter Dunst

bedeckt in 200 ft

Temperatur 7.0°C

Taupunkt 7.0°C

Luftfeuchtigkeit 100%

Luftdruck 1027 hPa

EDHK 261150Z 23006KT 180V270 4400 BR OVC002 07/07 Q1027

Prognose für EDHK

vom 26.11. um 11:00 UTC

Zwischen 12:00 UTC und 19:00 UTC

Wind 6 kt aus 240°

Sichtweite 4500 m

feuchter Dunst

bedeckt in 200 ft


Zwischen 12:00 und 14:00 UTC übergehend zu

Wind 6 kt aus 240°

Sichtweite 6000 m

feuchter Dunst

bedeckt in 200 ft


Zwischen 14:00 UTC und 18:00 UTC zeitweise mit einer Wahrscheinlichkeit von 30%

aufgebrochene Bewölkung in 600 ft

TAF EDHK 261100Z 2612/2619 24006KT 4500 BR OVC002 BECMG 2612/2614 6000 PROB30 TEMPO 2614/2618 BKN006
Impressum